Terminal Aerodrome Forecast
Issued by NWS

Home | Current Version | Previous Version | Text Only | Print | Product List | Glossary On
Versions: 1 2 3 4 5 6 7 8 9 10 11 12 13 14 15
000
FTUS42 KMLB 252328
TAFSFB
TAF
KSFB 252328Z 2600/2624 10010KT P6SM SCT060 SCT250
     FM260200 09006KT P6SM SCT040 BKN250
     FM260900 11003KT 5SM BR SCT020 BKN250
     FM261300 12008KT P6SM SCT040 SCT250=

USA.gov is the U.S. government's official web portal to all federal, state and local government web resources and services.